createdAt,value
2022-10-30T00:01:41.599Z,7.88
2022-10-30T00:04:27.486Z,6.53
2022-10-30T00:07:12.958Z,5.55
2022-10-30T00:09:58.139Z,7.13
2022-10-30T00:12:44.066Z,5.03
2022-10-30T00:15:29.472Z,8.43
2022-10-30T00:18:15.126Z,6.85
2022-10-30T00:21:14.574Z,4.40
2022-10-30T00:24:00.027Z,11.02
2022-10-30T00:26:45.476Z,11.93
2022-10-30T00:29:30.775Z,8.43
2022-10-30T00:32:17.150Z,4.50
2022-10-30T00:35:02.875Z,6.90
2022-10-30T00:37:49.901Z,13.48
2022-10-30T00:40:35.982Z,5.95
2022-10-30T00:43:36.676Z,5.25
2022-10-30T00:46:30.966Z,5.13
2022-10-30T00:49:17.033Z,10.38
2022-10-30T00:52:08.257Z,7.43
2022-10-30T00:54:56.514Z,12.02
2022-10-30T00:57:42.907Z,4.05
2022-10-30T01:00:30.125Z,6.10
2022-10-30T01:03:16.177Z,4.88
2022-10-30T01:06:05.037Z,4.03
2022-10-30T01:08:56.929Z,6.82
2022-10-30T01:11:45.898Z,3.83
2022-10-30T01:14:34.008Z,8.77
2022-10-30T01:17:29.216Z,6.15
2022-10-30T01:20:49.783Z,4.90
2022-10-30T01:24:02.442Z,4.45
2022-10-30T01:27:12.584Z,7.03
2022-10-30T01:30:13.276Z,7.82
2022-10-30T01:36:04.964Z,4.97
2022-10-30T01:38:57.224Z,8.60
2022-10-30T01:44:31.983Z,7.95
2022-10-30T01:47:45.602Z,4.20
2022-10-30T01:50:57.704Z,4.75
2022-10-30T01:53:50.990Z,5.75
2022-10-30T01:56:44.005Z,8.82
2022-10-30T01:59:39.197Z,5.97
2022-10-30T02:02:25.768Z,3.53
2022-10-30T02:05:20.535Z,6.03
2022-10-30T02:08:06.587Z,7.43
2022-10-30T02:10:56.384Z,6.35
2022-10-30T02:13:58.716Z,7.55
2022-10-30T02:16:48.492Z,3.97
2022-10-30T02:19:36.771Z,4.88
2022-10-30T02:22:22.432Z,10.15
2022-10-30T02:25:08.559Z,5.63
2022-10-30T02:27:53.983Z,6.10
2022-10-30T02:30:40.985Z,6.60
2022-10-30T02:33:26.185Z,4.25
2022-10-30T02:36:11.669Z,6.28
2022-10-30T02:38:57.155Z,5.20
2022-10-30T02:41:42.614Z,5.57
2022-10-30T02:44:30.606Z,6.30
2022-10-30T02:47:15.949Z,8.43
2022-10-30T02:50:01.307Z,7.32
2022-10-30T02:52:46.690Z,11.75
2022-10-30T02:55:32.370Z,2.97
2022-10-30T02:58:17.793Z,8.23
2022-10-30T03:01:09.996Z,4.82
2022-10-30T03:03:55.813Z,6.53
2022-10-30T03:06:41.517Z,6.75
2022-10-30T03:09:26.912Z,9.00
2022-10-30T03:12:12.414Z,6.68
2022-10-30T03:14:57.804Z,9.38
2022-10-30T03:17:43.161Z,5.50
2022-10-30T03:20:29.952Z,6.28
2022-10-30T03:23:15.342Z,6.10
2022-10-30T03:26:03.071Z,4.93
2022-10-30T03:28:50.949Z,7.07
2022-10-30T03:31:36.783Z,7.40
2022-10-30T03:34:35.510Z,10.18
2022-10-30T03:37:24.548Z,8.27
2022-10-30T03:40:10.557Z,5.75
2022-10-30T03:42:57.225Z,7.25
2022-10-30T03:45:48.610Z,7.55
2022-10-30T03:48:35.228Z,5.60
2022-10-30T03:51:20.824Z,4.90
2022-10-30T03:54:06.080Z,8.50
2022-10-30T03:56:52.282Z,4.32
2022-10-30T03:59:38.573Z,8.13
2022-10-30T04:02:49.067Z,9.30
2022-10-30T04:05:36.442Z,4.93
2022-10-30T04:08:22.343Z,4.55
2022-10-30T04:11:11.070Z,7.07
2022-10-30T04:13:57.231Z,9.15
2022-10-30T04:16:42.648Z,4.97
2022-10-30T04:19:28.608Z,6.82
2022-10-30T04:22:14.337Z,8.07
2022-10-30T04:25:00.106Z,6.80
2022-10-30T04:27:47.088Z,6.50
2022-10-30T04:30:35.369Z,9.32
2022-10-30T04:33:21.490Z,7.57
2022-10-30T04:36:08.322Z,6.18
2022-10-30T04:38:53.438Z,10.07
2022-10-30T04:41:41.248Z,10.93
2022-10-30T04:44:33.759Z,6.20
2022-10-30T04:47:19.374Z,5.88
2022-10-30T04:50:05.546Z,6.78
2022-10-30T04:52:59.563Z,7.68
2022-10-30T04:55:45.785Z,5.47
2022-10-30T04:58:31.261Z,5.35
2022-10-30T05:01:22.829Z,5.63
2022-10-30T05:04:09.214Z,7.65
2022-10-30T05:06:54.709Z,8.18
2022-10-30T05:09:39.990Z,5.65
2022-10-30T05:12:25.886Z,6.25
2022-10-30T05:15:14.503Z,6.47
2022-10-30T05:18:00.724Z,6.68
2022-10-30T05:20:47.166Z,7.70
2022-10-30T05:23:32.645Z,5.38
2022-10-30T05:26:18.866Z,8.35
2022-10-30T05:29:05.574Z,10.57
2022-10-30T05:31:51.635Z,6.75
2022-10-30T05:34:51.620Z,7.35
2022-10-30T05:37:41.557Z,8.93
2022-10-30T05:40:27.997Z,9.90
2022-10-30T05:43:13.310Z,6.97
2022-10-30T05:45:59.206Z,10.65
2022-10-30T05:48:44.583Z,5.40
2022-10-30T05:51:31.799Z,5.32
2022-10-30T05:54:23.257Z,5.28
2022-10-30T05:57:24.260Z,5.68
2022-10-30T06:00:12.728Z,5.93
2022-10-30T06:03:02.414Z,13.57
2022-10-30T06:05:50.568Z,4.30
2022-10-30T06:08:36.935Z,6.18
2022-10-30T06:11:44.117Z,8.10
2022-10-30T06:14:32.717Z,6.00
2022-10-30T06:17:18.250Z,11.02
2022-10-30T06:20:19.989Z,5.25
2022-10-30T06:23:45.334Z,7.03
2022-10-30T06:26:51.525Z,8.30
2022-10-30T06:29:36.927Z,10.02
2022-10-30T06:32:22.872Z,6.00
2022-10-30T06:35:09.539Z,11.40
2022-10-30T06:37:56.231Z,8.70
2022-10-30T06:40:43.561Z,5.75
2022-10-30T06:43:48.062Z,9.98
2022-10-30T06:46:43.355Z,10.40
2022-10-30T06:49:29.263Z,7.88
2022-10-30T06:52:14.761Z,4.47
2022-10-30T06:55:02.735Z,7.50
2022-10-30T06:58:03.881Z,6.72
2022-10-30T07:01:06.830Z,7.75
2022-10-30T07:04:12.126Z,7.65
2022-10-30T07:06:58.078Z,7.53
2022-10-30T07:09:43.879Z,8.85
2022-10-30T07:12:30.397Z,10.20
2022-10-30T07:15:20.123Z,9.00
2022-10-30T07:18:20.523Z,7.70
2022-10-30T07:21:07.490Z,6.53
2022-10-30T07:23:52.998Z,17.60
2022-10-30T07:26:46.774Z,10.05
2022-10-30T07:29:49.833Z,8.82
2022-10-30T07:33:07.928Z,7.20
2022-10-30T07:36:15.776Z,10.55
2022-10-30T07:39:19.295Z,5.97
2022-10-30T07:42:28.160Z,8.60
2022-10-30T07:45:33.043Z,10.15
2022-10-30T07:48:39.065Z,10.30
2022-10-30T07:51:47.698Z,10.32
2022-10-30T07:54:34.327Z,5.90
2022-10-30T07:57:38.182Z,8.98
2022-10-30T08:00:42.191Z,8.27
2022-10-30T08:03:41.646Z,10.35
2022-10-30T08:06:35.560Z,12.13
2022-10-30T08:09:21.441Z,7.85
2022-10-30T08:12:07.663Z,11.40
2022-10-30T08:14:53.910Z,11.25
2022-10-30T08:17:48.123Z,9.40
2022-10-30T08:20:33.950Z,13.85
2022-10-30T08:23:19.913Z,16.17
2022-10-30T08:26:05.803Z,8.68
2022-10-30T08:28:55.698Z,8.98
2022-10-30T08:31:44.354Z,12.00
2022-10-30T08:34:42.364Z,7.93
2022-10-30T08:37:27.870Z,9.32
2022-10-30T08:40:13.723Z,11.75
2022-10-30T08:43:08.472Z,9.05
2022-10-30T08:45:58.130Z,12.05
2022-10-30T08:48:44.406Z,9.68
2022-10-30T08:51:35.308Z,13.25
2022-10-30T08:54:20.900Z,10.18
2022-10-30T08:57:06.496Z,16.38
2022-10-30T08:59:52.288Z,11.52
2022-10-30T09:02:58.354Z,11.18
2022-10-30T09:06:02.918Z,13.25
2022-10-30T09:09:23.715Z,22.50
2022-10-30T09:12:12.410Z,7.65
2022-10-30T09:15:02.116Z,5.45
2022-10-30T09:17:59.554Z,6.05
2022-10-30T09:20:49.439Z,7.70
2022-10-30T09:23:35.307Z,6.13
2022-10-30T09:26:41.188Z,9.70
2022-10-30T09:29:39.869Z,9.65
2022-10-30T09:32:39.694Z,7.50
2022-10-30T09:35:33.372Z,9.27
2022-10-30T09:38:18.960Z,11.55
2022-10-30T09:41:23.409Z,7.78
2022-10-30T09:44:38.926Z,8.63
2022-10-30T09:48:03.770Z,8.02
2022-10-30T09:51:27.954Z,8.18
2022-10-30T09:54:21.284Z,8.20
2022-10-30T09:57:22.206Z,12.93
2022-10-30T10:00:15.447Z,9.63
2022-10-30T10:03:31.253Z,13.43
2022-10-30T10:06:39.780Z,15.45
2022-10-30T10:09:47.985Z,7.75
2022-10-30T10:12:45.292Z,10.18
2022-10-30T10:15:44.585Z,8.35
2022-10-30T10:18:37.894Z,13.57
2022-10-30T10:21:26.285Z,9.98
2022-10-30T10:24:23.281Z,10.07
2022-10-30T10:27:28.052Z,7.30
2022-10-30T10:30:52.239Z,7.72
2022-10-30T10:33:43.651Z,10.70
2022-10-30T10:37:04.549Z,9.07
2022-10-30T10:40:16.665Z,9.80
2022-10-30T10:43:02.191Z,15.07
2022-10-30T10:45:57.858Z,10.05
2022-10-30T10:49:02.785Z,10.13
2022-10-30T10:51:54.420Z,6.47
2022-10-30T10:54:46.135Z,13.75
2022-10-30T10:57:40.642Z,6.13
2022-10-30T11:00:29.167Z,7.25
2022-10-30T11:03:20.640Z,11.30
2022-10-30T11:06:21.442Z,5.45
2022-10-30T11:09:17.093Z,4.97
2022-10-30T11:12:04.199Z,7.35
2022-10-30T11:14:49.892Z,11.63
2022-10-30T11:17:53.734Z,4.53
2022-10-30T11:20:45.566Z,6.88
2022-10-30T11:24:00.597Z,5.55
2022-10-30T11:26:46.741Z,5.70
2022-10-30T11:29:32.681Z,5.38
2022-10-30T11:32:22.987Z,5.05
2022-10-30T11:35:08.867Z,4.50
2022-10-30T11:38:19.108Z,6.70
2022-10-30T11:41:05.191Z,7.55
2022-10-30T11:43:51.228Z,5.93
2022-10-30T11:46:37.177Z,6.53
2022-10-30T11:49:35.693Z,5.00
2022-10-30T11:52:23.931Z,11.38
2022-10-30T11:55:35.093Z,5.75
2022-10-30T11:58:27.790Z,9.35
2022-10-30T12:01:22.290Z,5.75
2022-10-30T12:04:22.326Z,7.88
2022-10-30T12:07:23.147Z,9.40
2022-10-30T12:10:24.720Z,7.10
2022-10-30T12:13:19.198Z,4.82
2022-10-30T12:16:14.404Z,7.30
2022-10-30T12:19:07.161Z,5.30
2022-10-30T12:21:54.726Z,5.50
2022-10-30T12:24:44.124Z,4.35
2022-10-30T12:27:34.439Z,6.43
2022-10-30T12:30:21.206Z,5.28
2022-10-30T12:33:14.424Z,8.20
2022-10-30T12:36:03.906Z,7.03
2022-10-30T12:38:54.589Z,7.65
2022-10-30T12:41:45.758Z,10.52
2022-10-30T12:44:40.204Z,7.50
2022-10-30T12:47:41.238Z,5.72
2022-10-30T12:50:32.972Z,8.25
2022-10-30T12:53:33.763Z,8.25
2022-10-30T12:56:28.177Z,6.15
2022-10-30T12:59:39.502Z,7.13
2022-10-30T13:02:53.444Z,6.03
2022-10-30T13:05:48.168Z,4.18
2022-10-30T13:08:38.696Z,5.43
2022-10-30T13:11:37.912Z,6.13
2022-10-30T13:14:35.437Z,3.45
2022-10-30T13:17:21.661Z,5.15
2022-10-30T13:20:15.513Z,5.75
2022-10-30T13:23:11.888Z,4.28
2022-10-30T13:26:13.604Z,3.72
2022-10-30T13:29:44.524Z,6.15
2022-10-30T13:32:38.868Z,4.32
2022-10-30T13:35:38.957Z,6.20
2022-10-30T13:38:46.316Z,7.10
2022-10-30T13:41:53.203Z,4.88
2022-10-30T13:45:00.598Z,7.43
2022-10-30T13:47:49.195Z,5.00
2022-10-30T13:50:40.831Z,5.63
2022-10-30T13:53:30.773Z,4.93
2022-10-30T13:56:18.930Z,6.82
2022-10-30T13:59:20.630Z,5.53
2022-10-30T14:02:28.332Z,8.17
2022-10-30T14:05:32.680Z,4.47
2022-10-30T14:08:38.874Z,6.25
2022-10-30T14:11:24.883Z,5.15
2022-10-30T14:14:13.436Z,6.18
2022-10-30T14:17:17.973Z,3.92
2022-10-30T14:20:12.545Z,5.03
2022-10-30T14:23:23.045Z,7.82
2022-10-30T14:26:11.621Z,5.35
2022-10-30T14:28:57.419Z,6.40
2022-10-30T14:31:42.913Z,7.30
2022-10-30T14:34:50.107Z,5.80
2022-10-30T14:37:38.751Z,10.55
2022-10-30T14:40:53.573Z,6.55
2022-10-30T14:43:51.471Z,8.63
2022-10-30T14:46:42.956Z,7.22
2022-10-30T14:49:38.344Z,6.63
2022-10-30T14:52:30.308Z,7.90
2022-10-30T14:55:31.800Z,6.22
2022-10-30T14:58:27.139Z,8.82
2022-10-30T15:01:31.943Z,11.75
2022-10-30T15:04:22.274Z,18.35
2022-10-30T15:07:27.085Z,13.20
2022-10-30T15:10:33.467Z,19.42
2022-10-30T15:13:23.079Z,15.68
2022-10-30T15:16:09.315Z,16.63
2022-10-30T15:19:06.174Z,19.63
2022-10-30T15:21:54.820Z,45.78
2022-10-30T15:24:41.487Z,31.75
2022-10-30T15:27:27.764Z,25.60
2022-10-30T15:30:19.233Z,19.17
2022-10-30T15:33:21.862Z,23.38
2022-10-30T15:36:41.716Z,14.88
2022-10-30T15:39:27.056Z,15.95
2022-10-30T15:42:12.940Z,14.40
2022-10-30T15:44:58.727Z,11.75
2022-10-30T15:47:52.554Z,16.55
2022-10-30T15:50:43.843Z,29.63
2022-10-30T15:53:44.376Z,14.55
2022-10-30T15:56:33.876Z,19.50
2022-10-30T15:59:24.038Z,22.98
2022-10-30T16:02:23.856Z,28.58
2022-10-30T16:05:21.137Z,25.85
2022-10-30T16:08:19.106Z,15.00
2022-10-30T16:11:05.331Z,13.73
2022-10-30T16:13:51.898Z,18.42
2022-10-30T16:16:37.910Z,17.30
2022-10-30T16:19:31.693Z,17.33
2022-10-30T16:22:26.175Z,14.02
2022-10-30T16:25:13.017Z,14.75
2022-10-30T16:27:58.845Z,17.08
2022-10-30T16:30:44.557Z,11.65
2022-10-30T16:33:32.185Z,14.07
2022-10-30T16:36:19.251Z,18.20
2022-10-30T16:39:05.000Z,15.02
2022-10-30T16:41:50.289Z,19.42
2022-10-30T16:44:36.249Z,13.93
2022-10-30T16:47:25.777Z,18.77
2022-10-30T16:50:15.593Z,16.63
2022-10-30T16:53:17.186Z,27.20
2022-10-30T16:56:03.193Z,28.50
2022-10-30T16:58:49.538Z,21.73
2022-10-30T17:01:35.570Z,19.08
2022-10-30T17:04:21.508Z,14.30
2022-10-30T17:07:18.598Z,17.13
2022-10-30T17:10:24.716Z,17.45
2022-10-30T17:13:34.880Z,16.48
2022-10-30T17:16:26.459Z,25.55
2022-10-30T17:19:30.032Z,88.30
2022-10-30T17:22:20.102Z,65.82
2022-10-30T17:25:30.442Z,45.10
2022-10-30T17:28:29.809Z,32.88
2022-10-30T17:31:18.248Z,54.15
2022-10-30T17:34:13.315Z,50.45
2022-10-30T17:36:59.840Z,46.15
2022-10-30T17:39:45.364Z,36.22
2022-10-30T17:42:30.837Z,31.65
2022-10-30T17:45:17.238Z,25.10
2022-10-30T17:48:02.903Z,22.52
2022-10-30T17:50:48.635Z,21.92
2022-10-30T17:53:34.222Z,26.40
2022-10-30T17:56:24.147Z,29.35
2022-10-30T17:59:09.394Z,19.95
2022-10-30T18:01:54.784Z,21.42
2022-10-30T18:04:42.391Z,17.15
2022-10-30T18:07:27.968Z,37.53
2022-10-30T18:10:13.679Z,20.67
2022-10-30T18:12:59.643Z,17.83
2022-10-30T18:15:51.833Z,25.48
2022-10-30T18:18:37.910Z,21.33
2022-10-30T18:21:27.378Z,16.90
2022-10-30T18:24:13.110Z,20.63
2022-10-30T18:26:59.180Z,17.38
2022-10-30T18:29:45.086Z,17.33
2022-10-30T18:32:30.345Z,23.13
2022-10-30T18:35:25.772Z,20.45
2022-10-30T18:38:12.490Z,23.65
2022-10-30T18:40:58.335Z,24.33
2022-10-30T18:43:46.785Z,27.40
2022-10-30T18:46:34.108Z,25.40
2022-10-30T18:49:24.523Z,26.50
2022-10-30T18:52:10.980Z,26.60
2022-10-30T18:54:56.525Z,24.40
2022-10-30T18:57:41.980Z,27.50
2022-10-30T19:00:51.166Z,21.70
2022-10-30T19:03:35.486Z,29.58
2022-10-30T19:06:24.215Z,40.03
2022-10-30T19:09:09.923Z,41.30
2022-10-30T19:11:55.571Z,42.35
2022-10-30T19:14:40.863Z,29.88
2022-10-30T19:17:26.486Z,31.52
2022-10-30T19:20:13.197Z,27.20
2022-10-30T19:22:59.808Z,27.92
2022-10-30T19:25:46.472Z,21.05
2022-10-30T19:28:32.794Z,28.20
2022-10-30T19:31:19.636Z,24.10
2022-10-30T19:34:05.454Z,26.05
2022-10-30T19:36:50.853Z,23.90
2022-10-30T19:39:36.007Z,27.60
2022-10-30T19:42:22.114Z,25.10
2022-10-30T19:45:08.078Z,23.50
2022-10-30T19:47:56.333Z,18.27
2022-10-30T19:50:43.607Z,14.95
2022-10-30T19:53:28.666Z,16.55
2022-10-30T19:56:15.271Z,19.55
2022-10-30T19:59:00.906Z,17.40
2022-10-30T20:01:46.358Z,20.38
2022-10-30T20:04:32.578Z,16.92
2022-10-30T20:07:18.141Z,17.48
2022-10-30T20:10:13.714Z,24.17
2022-10-30T20:12:59.571Z,19.30
2022-10-30T20:15:45.099Z,23.88
2022-10-30T20:18:32.577Z,21.75
2022-10-30T20:21:19.713Z,21.00
2022-10-30T20:24:05.927Z,21.20
2022-10-30T20:26:52.983Z,27.15
2022-10-30T20:29:40.608Z,25.00
2022-10-30T20:32:26.105Z,32.28
2022-10-30T20:35:13.596Z,25.92
2022-10-30T20:38:02.502Z,22.58
2022-10-30T20:40:49.457Z,22.23
2022-10-30T20:43:37.416Z,28.83
2022-10-30T20:46:22.563Z,26.45
2022-10-30T20:49:17.100Z,31.05
2022-10-30T20:52:02.710Z,22.85
2022-10-30T20:54:48.150Z,21.40
2022-10-30T20:57:33.571Z,32.60
2022-10-30T21:00:19.288Z,24.35
2022-10-30T21:03:06.548Z,27.08
2022-10-30T21:06:00.625Z,30.38
2022-10-30T21:08:46.507Z,27.63
2022-10-30T21:11:32.096Z,30.48
2022-10-30T21:14:17.780Z,42.72
2022-10-30T21:17:03.102Z,35.47
2022-10-30T21:19:48.502Z,39.10
2022-10-30T21:22:34.039Z,38.60
2022-10-30T21:25:19.316Z,70.45
2022-10-30T21:28:04.853Z,64.45
2022-10-30T21:30:50.390Z,96.63
2022-10-30T21:33:37.147Z,73.22
2022-10-30T21:36:23.486Z,42.03
2022-10-30T21:39:09.307Z,37.80
2022-10-30T21:41:54.747Z,38.67
2022-10-30T21:44:40.028Z,30.92
2022-10-30T21:47:25.704Z,21.45
2022-10-30T21:50:12.678Z,24.48
2022-10-30T21:53:00.557Z,25.58
2022-10-30T21:55:46.155Z,24.30
2022-10-30T21:58:31.706Z,28.25
2022-10-30T22:01:23.019Z,24.00
2022-10-30T22:04:10.546Z,25.88
2022-10-30T22:06:56.340Z,19.75
2022-10-30T22:09:41.637Z,18.70
2022-10-30T22:12:27.009Z,27.13
2022-10-30T22:15:12.395Z,27.75
2022-10-30T22:17:58.611Z,23.33
2022-10-30T22:20:44.371Z,29.90
2022-10-30T22:23:30.449Z,23.02
2022-10-30T22:26:21.544Z,21.58
2022-10-30T22:29:07.089Z,20.25
2022-10-30T22:31:52.732Z,18.25
2022-10-30T22:34:38.613Z,22.27
2022-10-30T22:37:24.868Z,18.02
2022-10-30T22:40:10.846Z,21.55
2022-10-30T22:42:56.811Z,21.63
2022-10-30T22:45:42.565Z,19.48
2022-10-30T22:48:27.972Z,16.30
2022-10-30T22:51:16.662Z,19.40
2022-10-30T22:54:04.607Z,24.60
2022-10-30T22:56:50.124Z,20.80
2022-10-30T22:59:35.421Z,17.27
2022-10-30T23:02:21.005Z,17.27
2022-10-30T23:05:06.421Z,22.85
2022-10-30T23:07:52.542Z,19.75
2022-10-30T23:10:37.900Z,20.75
2022-10-30T23:13:23.506Z,23.33
2022-10-30T23:16:14.079Z,28.10
2022-10-30T23:19:00.789Z,26.15
2022-10-30T23:21:46.489Z,25.38
2022-10-30T23:24:31.832Z,27.80
2022-10-30T23:27:17.279Z,31.92
2022-10-30T23:30:02.701Z,33.08
2022-10-30T23:32:48.433Z,31.40
2022-10-30T23:35:33.735Z,27.55
2022-10-30T23:38:19.166Z,26.17
2022-10-30T23:41:04.437Z,28.13
2022-10-30T23:43:57.227Z,27.33
2022-10-30T23:46:43.188Z,29.85
2022-10-30T23:49:33.170Z,23.95
2022-10-30T23:52:19.957Z,27.08
2022-10-30T23:55:05.852Z,24.02
2022-10-30T23:57:51.211Z,22.08
